sensor_id;sensor_type;location;lat;lon;timestamp;pressure;altitude;pressure_sealevel;temperature;humidity
39773;BME280;25451;51.960;6.250;2024-02-26T00:01:22;99828.47;;;6.35;79.43
39773;BME280;25451;51.960;6.250;2024-02-26T00:03:48;99831.56;;;6.38;79.58
39773;BME280;25451;51.960;6.250;2024-02-26T00:06:13;99839.28;;;6.41;79.53
39773;BME280;25451;51.960;6.250;2024-02-26T00:08:38;99829.06;;;6.37;79.18
39773;BME280;25451;51.960;6.250;2024-02-26T00:11:04;99819.41;;;6.34;79.07
39773;BME280;25451;51.960;6.250;2024-02-26T00:13:29;99845.97;;;6.45;79.37
39773;BME280;25451;51.960;6.250;2024-02-26T00:15:54;99834.75;;;6.35;79.33
39773;BME280;25451;51.960;6.250;2024-02-26T00:18:19;99812.88;;;6.24;79.20
39773;BME280;25451;51.960;6.250;2024-02-26T00:20:45;99839.88;;;6.43;79.46
39773;BME280;25451;51.960;6.250;2024-02-26T00:23:10;99830.13;;;6.36;79.89
39773;BME280;25451;51.960;6.250;2024-02-26T00:25:35;99821.66;;;6.37;79.27
39773;BME280;25451;51.960;6.250;2024-02-26T00:28:03;99817.13;;;6.31;79.79
39773;BME280;25451;51.960;6.250;2024-02-26T00:30:29;99837.63;;;6.40;79.09
39773;BME280;25451;51.960;6.250;2024-02-26T00:32:54;99826.91;;;6.39;79.30
39773;BME280;25451;51.960;6.250;2024-02-26T00:35:19;99820.84;;;6.25;79.04
39773;BME280;25451;51.960;6.250;2024-02-26T00:37:45;99808.47;;;6.23;79.44
39773;BME280;25451;51.960;6.250;2024-02-26T00:40:11;99818.69;;;6.27;79.18
39773;BME280;25451;51.960;6.250;2024-02-26T00:42:36;99827.13;;;6.37;79.28
39773;BME280;25451;51.960;6.250;2024-02-26T00:45:02;99820.72;;;6.32;79.51
39773;BME280;25451;51.960;6.250;2024-02-26T00:47:27;99817.13;;;6.31;79.76
39773;BME280;25451;51.960;6.250;2024-02-26T00:49:53;99798.84;;;6.20;79.25
39773;BME280;25451;51.960;6.250;2024-02-26T00:52:18;99810.72;;;6.26;79.20
39773;BME280;25451;51.960;6.250;2024-02-26T00:54:43;99809.88;;;6.25;79.08
39773;BME280;25451;51.960;6.250;2024-02-26T00:57:09;99785.00;;;6.15;79.46
39773;BME280;25451;51.960;6.250;2024-02-26T00:59:34;99793.00;;;6.17;79.26
39773;BME280;25451;51.960;6.250;2024-02-26T01:01:59;99796.09;;;6.20;79.34
39773;BME280;25451;51.960;6.250;2024-02-26T01:04:27;99783.81;;;6.11;79.11
39773;BME280;25451;51.960;6.250;2024-02-26T01:06:52;99818.81;;;6.32;79.39
39773;BME280;25451;51.960;6.250;2024-02-26T01:09:18;99807.72;;;6.27;79.45
39773;BME280;25451;51.960;6.250;2024-02-26T01:11:43;99826.53;;;6.35;79.50
39773;BME280;25451;51.960;6.250;2024-02-26T01:14:09;99829.28;;;6.35;79.04
39773;BME280;25451;51.960;6.250;2024-02-26T01:16:34;99807.06;;;6.20;79.18
39773;BME280;25451;51.960;6.250;2024-02-26T01:19:00;99810.13;;;6.24;79.25
39773;BME280;25451;51.960;6.250;2024-02-26T01:21:25;99829.28;;;6.35;78.96
39773;BME280;25451;51.960;6.250;2024-02-26T01:23:54;99827.63;;;6.34;78.81
39773;BME280;25451;51.960;6.250;2024-02-26T01:26:19;99806.34;;;6.25;79.55
39773;BME280;25451;51.960;6.250;2024-02-26T01:28:47;99815.34;;;6.25;79.36
39773;BME280;25451;51.960;6.250;2024-02-26T01:31:13;99829.78;;;6.32;79.28
39773;BME280;25451;51.960;6.250;2024-02-26T01:33:38;99833.69;;;6.36;79.13
39773;BME280;25451;51.960;6.250;2024-02-26T01:36:03;99785.97;;;6.09;79.04
39773;BME280;25451;51.960;6.250;2024-02-26T01:38:29;99814.66;;;6.30;79.04
39773;BME280;25451;51.960;6.250;2024-02-26T01:40:54;99812.63;;;6.25;78.84
39773;BME280;25451;51.960;6.250;2024-02-26T01:43:19;99805.75;;;6.23;78.79
39773;BME280;25451;51.960;6.250;2024-02-26T01:45:45;99832.41;;;6.27;78.79
39773;BME280;25451;51.960;6.250;2024-02-26T01:48:10;99811.69;;;6.20;78.93
39773;BME280;25451;51.960;6.250;2024-02-26T01:50:36;99816.44;;;6.24;78.89
39773;BME280;25451;51.960;6.250;2024-02-26T01:53:03;99850.38;;;6.35;79.23
39773;BME280;25451;51.960;6.250;2024-02-26T01:55:30;99851.19;;;6.35;79.08
39773;BME280;25451;51.960;6.250;2024-02-26T01:57:56;99832.88;;;6.24;78.46
39773;BME280;25451;51.960;6.250;2024-02-26T02:00:22;99856.34;;;6.32;79.10
39773;BME280;25451;51.960;6.250;2024-02-26T02:02:49;99868.47;;;6.36;78.85
39773;BME280;25451;51.960;6.250;2024-02-26T02:05:16;99852.75;;;6.31;79.21
39773;BME280;25451;51.960;6.250;2024-02-26T02:07:44;99847.19;;;6.26;78.72
39773;BME280;25451;51.960;6.250;2024-02-26T02:10:10;99860.38;;;6.29;78.92
39773;BME280;25451;51.960;6.250;2024-02-26T02:12:35;99840.03;;;6.14;78.96
39773;BME280;25451;51.960;6.250;2024-02-26T02:15:04;99852.41;;;6.28;78.81
39773;BME280;25451;51.960;6.250;2024-02-26T02:17:30;99870.03;;;6.32;78.81
39773;BME280;25451;51.960;6.250;2024-02-26T02:19:56;99842.66;;;6.20;78.69
39773;BME280;25451;51.960;6.250;2024-02-26T02:22:21;99866.00;;;6.34;79.20
39773;BME280;25451;51.960;6.250;2024-02-26T02:24:49;99880.88;;;6.38;78.46
39773;BME280;25451;51.960;6.250;2024-02-26T02:27:14;99872.66;;;6.38;79.05
39773;BME280;25451;51.960;6.250;2024-02-26T02:29:40;99853.13;;;6.23;78.49
39773;BME280;25451;51.960;6.250;2024-02-26T02:32:06;99863.63;;;6.26;78.27
39773;BME280;25451;51.960;6.250;2024-02-26T02:34:32;99878.38;;;6.37;78.83
39773;BME280;25451;51.960;6.250;2024-02-26T02:36:57;99871.84;;;6.26;78.22
39773;BME280;25451;51.960;6.250;2024-02-26T02:39:23;99832.91;;;6.01;78.65
39773;BME280;25451;51.960;6.250;2024-02-26T02:41:48;99875.03;;;6.23;78.35
39773;BME280;25451;51.960;6.250;2024-02-26T02:44:13;99873.84;;;6.19;78.80
39773;BME280;25451;51.960;6.250;2024-02-26T02:46:39;99890.44;;;6.24;78.62
39773;BME280;25451;51.960;6.250;2024-02-26T02:49:08;99909.84;;;6.34;78.66
39773;BME280;25451;51.960;6.250;2024-02-26T02:51:34;99850.66;;;6.10;78.49
39773;BME280;25451;51.960;6.250;2024-02-26T02:54:00;99884.22;;;6.29;78.49
39773;BME280;25451;51.960;6.250;2024-02-26T02:56:25;99880.66;;;6.28;78.88
39773;BME280;25451;51.960;6.250;2024-02-26T02:58:51;99886.38;;;6.27;78.77
39773;BME280;25451;51.960;6.250;2024-02-26T03:01:17;99888.88;;;6.28;78.45
39773;BME280;25451;51.960;6.250;2024-02-26T03:03:42;99887.91;;;6.34;78.59
39773;BME280;25451;51.960;6.250;2024-02-26T03:06:07;99886.72;;;6.30;78.68
39773;BME280;25451;51.960;6.250;2024-02-26T03:08:33;99851.50;;;6.11;78.11
39773;BME280;25451;51.960;6.250;2024-02-26T03:11:01;99879.72;;;6.23;78.51
39773;BME280;25451;51.960;6.250;2024-02-26T03:13:27;99890.78;;;6.28;78.72
39773;BME280;25451;51.960;6.250;2024-02-26T03:15:52;99882.22;;;6.24;78.61
39773;BME280;25451;51.960;6.250;2024-02-26T03:18:17;99885.88;;;6.30;78.68
39773;BME280;25451;51.960;6.250;2024-02-26T03:20:43;99883.16;;;6.30;78.52
39773;BME280;25451;51.960;6.250;2024-02-26T03:23:08;99881.25;;;6.30;78.61
39773;BME280;25451;51.960;6.250;2024-02-26T03:25:37;99878.88;;;6.22;78.37
39773;BME280;25451;51.960;6.250;2024-02-26T03:28:02;99876.13;;;6.22;78.42
39773;BME280;25451;51.960;6.250;2024-02-26T03:30:27;99878.03;;;6.22;78.00
39773;BME280;25451;51.960;6.250;2024-02-26T03:32:53;99891.13;;;6.31;78.50
39773;BME280;25451;51.960;6.250;2024-02-26T03:35:18;99873.75;;;6.14;78.64
39773;BME280;25451;51.960;6.250;2024-02-26T03:37:43;99875.41;;;6.27;78.64
39773;BME280;25451;51.960;6.250;2024-02-26T03:40:11;99877.19;;;6.21;78.62
39773;BME280;25451;51.960;6.250;2024-02-26T03:42:38;99874.34;;;6.16;78.38
39773;BME280;25451;51.960;6.250;2024-02-26T03:45:03;99893.50;;;6.28;78.13
39773;BME280;25451;51.960;6.250;2024-02-26T03:47:29;99884.94;;;6.24;78.71
39773;BME280;25451;51.960;6.250;2024-02-26T03:49:54;99865.53;;;6.14;78.29
39773;BME280;25451;51.960;6.250;2024-02-26T03:52:19;99904.81;;;6.31;78.26
39773;BME280;25451;51.960;6.250;2024-02-26T03:54:44;99914.81;;;6.37;78.06
39773;BME280;25451;51.960;6.250;2024-02-26T03:57:10;99906.50;;;6.32;78.03
39773;BME280;25451;51.960;6.250;2024-02-26T03:59:35;99914.22;;;6.35;78.31
39773;BME280;25451;51.960;6.250;2024-02-26T04:02:01;99894.09;;;6.30;78.33
39773;BME280;25451;51.960;6.250;2024-02-26T04:04:27;99895.53;;;6.32;77.80
39773;BME280;25451;51.960;6.250;2024-02-26T04:06:52;99895.53;;;6.32;78.03
39773;BME280;25451;51.960;6.250;2024-02-26T04:09:17;99909.50;;;6.31;77.78
39773;BME280;25451;51.960;6.250;2024-02-26T04:11:43;99894.72;;;6.20;78.14
39773;BME280;25451;51.960;6.250;2024-02-26T04:14:08;99884.22;;;6.17;78.09
39773;BME280;25451;51.960;6.250;2024-02-26T04:16:34;99906.97;;;6.29;77.94
39773;BME280;25451;51.960;6.250;2024-02-26T04:19:01;99901.16;;;6.14;77.65
39773;BME280;25451;51.960;6.250;2024-02-26T04:21:26;99906.63;;;6.26;78.08
39773;BME280;25451;51.960;6.250;2024-02-26T04:23:51;99911.50;;;6.24;78.00
39773;BME280;25451;51.960;6.250;2024-02-26T04:26:20;99928.88;;;6.29;78.03
39773;BME280;25451;51.960;6.250;2024-02-26T04:28:46;99945.56;;;6.39;77.69
39773;BME280;25451;51.960;6.250;2024-02-26T04:31:11;99929.72;;;6.30;77.63
39773;BME280;25451;51.960;6.250;2024-02-26T04:33:36;99944.50;;;6.40;77.61
39773;BME280;25451;51.960;6.250;2024-02-26T04:36:02;99930.91;;;6.34;77.55
39773;BME280;25451;51.960;6.250;2024-02-26T04:38:28;99928.41;;;6.32;77.87
39773;BME280;25451;51.960;6.250;2024-02-26T04:40:53;99903.88;;;6.14;77.54
39773;BME280;25451;51.960;6.250;2024-02-26T04:43:19;99947.72;;;6.37;77.57
39773;BME280;25451;51.960;6.250;2024-02-26T04:45:44;99951.53;;;6.36;77.81
39773;BME280;25451;51.960;6.250;2024-02-26T04:48:09;99929.84;;;6.23;78.21
39773;BME280;25451;51.960;6.250;2024-02-26T04:50:35;99951.66;;;6.30;77.89
39773;BME280;25451;51.960;6.250;2024-02-26T04:53:00;99940.09;;;6.16;77.79
39773;BME280;25451;51.960;6.250;2024-02-26T04:55:25;99963.91;;;6.27;78.40
39773;BME280;25451;51.960;6.250;2024-02-26T04:57:51;99957.84;;;6.25;78.08
39773;BME280;25451;51.960;6.250;2024-02-26T05:00:16;99956.53;;;6.28;77.59
39773;BME280;25451;51.960;6.250;2024-02-26T05:02:42;99952.13;;;6.15;77.35
39773;BME280;25451;51.960;6.250;2024-02-26T05:05:07;99939.97;;;6.11;78.21
39773;BME280;25451;51.960;6.250;2024-02-26T05:07:34;99952.00;;;6.10;78.11
39773;BME280;25451;51.960;6.250;2024-02-26T05:10:04;99952.38;;;6.14;78.37
39773;BME280;25451;51.960;6.250;2024-02-26T05:12:30;99945.94;;;6.08;77.91
39773;BME280;25451;51.960;6.250;2024-02-26T05:14:56;99930.31;;;5.97;78.11
39773;BME280;25451;51.960;6.250;2024-02-26T05:17:21;99948.31;;;6.05;78.22
39773;BME280;25451;51.960;6.250;2024-02-26T05:19:46;99922.78;;;5.93;78.09
39773;BME280;25451;51.960;6.250;2024-02-26T05:22:11;99947.94;;;6.01;78.36
39773;BME280;25451;51.960;6.250;2024-02-26T05:24:38;99943.75;;;5.99;78.80
39773;BME280;25451;51.960;6.250;2024-02-26T05:27:04;99935.88;;;5.91;78.24
39773;BME280;25451;51.960;6.250;2024-02-26T05:29:29;99926.34;;;5.81;79.04
39773;BME280;25451;51.960;6.250;2024-02-26T05:31:54;99949.38;;;5.92;78.70
39773;BME280;25451;51.960;6.250;2024-02-26T05:34:20;99956.03;;;5.96;78.64
39773;BME280;25451;51.960;6.250;2024-02-26T05:36:45;99967.00;;;5.96;78.48
39773;BME280;25451;51.960;6.250;2024-02-26T05:39:10;99955.06;;;5.91;78.89
39773;BME280;25451;51.960;6.250;2024-02-26T05:41:37;99948.19;;;5.88;78.95
39773;BME280;25451;51.960;6.250;2024-02-26T05:44:02;99973.66;;;6.00;78.96
39773;BME280;25451;51.960;6.250;2024-02-26T05:46:28;99953.66;;;5.88;78.90
39773;BME280;25451;51.960;6.250;2024-02-26T05:48:54;99956.59;;;5.86;79.08
39773;BME280;25451;51.960;6.250;2024-02-26T05:51:19;99965.66;;;5.87;78.45
39773;BME280;25451;51.960;6.250;2024-02-26T05:53:45;99968.63;;;5.85;78.93
39773;BME280;25451;51.960;6.250;2024-02-26T05:56:12;99991.25;;;5.93;78.74
39773;BME280;25451;51.960;6.250;2024-02-26T05:58:37;99986.28;;;5.90;78.64
39773;BME280;25451;51.960;6.250;2024-02-26T06:01:03;99995.63;;;5.82;79.24
39773;BME280;25451;51.960;6.250;2024-02-26T06:03:29;99958.94;;;5.71;79.11
39773;BME280;25451;51.960;6.250;2024-02-26T06:05:54;99982.88;;;5.76;79.48
39773;BME280;25451;51.960;6.250;2024-02-26T06:08:19;99989.94;;;5.83;79.09
39773;BME280;25451;51.960;6.250;2024-02-26T06:10:45;99991.69;;;5.78;79.20
39773;BME280;25451;51.960;6.250;2024-02-26T06:13:10;99987.00;;;5.67;79.30
39773;BME280;25451;51.960;6.250;2024-02-26T06:15:35;100016.94;;;5.80;79.27
39773;BME280;25451;51.960;6.250;2024-02-26T06:18:01;100002.50;;;5.73;79.40
39773;BME280;25451;51.960;6.250;2024-02-26T06:20:26;100011.47;;;5.80;79.46
39773;BME280;25451;51.960;6.250;2024-02-26T06:22:51;100023.47;;;5.79;79.04
39773;BME280;25451;51.960;6.250;2024-02-26T06:25:17;100017.03;;;5.73;79.26
39773;BME280;25451;51.960;6.250;2024-02-26T06:27:42;100026.19;;;5.79;79.18
39773;BME280;25451;51.960;6.250;2024-02-26T06:30:08;100028.09;;;5.78;79.55
39773;BME280;25451;51.960;6.250;2024-02-26T06:32:36;100013.31;;;5.68;79.37
39773;BME280;25451;51.960;6.250;2024-02-26T06:35:01;100007.09;;;5.61;79.63
39773;BME280;25451;51.960;6.250;2024-02-26T06:37:31;100024.03;;;5.69;79.33
39773;BME280;25451;51.960;6.250;2024-02-26T06:39:57;100001.03;;;5.59;79.56
39773;BME280;25451;51.960;6.250;2024-02-26T06:42:22;100017.13;;;5.67;79.79
39773;BME280;25451;51.960;6.250;2024-02-26T06:44:47;100017.59;;;5.64;79.48
39773;BME280;25451;51.960;6.250;2024-02-26T06:47:13;100015.31;;;5.61;79.58
39773;BME280;25451;51.960;6.250;2024-02-26T06:49:38;100037.84;;;5.74;79.19
39773;BME280;25451;51.960;6.250;2024-02-26T06:52:03;100049.63;;;5.75;80.28
39773;BME280;25451;51.960;6.250;2024-02-26T06:54:29;100018.88;;;5.61;79.98
39773;BME280;25451;51.960;6.250;2024-02-26T06:56:55;100047.97;;;5.74;79.65
39773;BME280;25451;51.960;6.250;2024-02-26T06:59:20;100029.69;;;5.56;79.78
39773;BME280;25451;51.960;6.250;2024-02-26T07:01:45;100059.16;;;5.72;80.11
39773;BME280;25451;51.960;6.250;2024-02-26T07:04:10;100051.78;;;5.73;79.94
39773;BME280;25451;51.960;6.250;2024-02-26T07:06:36;100024.91;;;5.52;79.96
39773;BME280;25451;51.960;6.250;2024-02-26T07:09:02;100034.78;;;5.53;79.60
39773;BME280;25451;51.960;6.250;2024-02-26T07:11:28;99932.91;;;4.91;80.03
39773;BME280;25451;51.960;6.250;2024-02-26T07:13:53;99951.06;;;5.04;79.90
39773;BME280;25451;51.960;6.250;2024-02-26T07:16:19;100041.72;;;5.55;80.03
39773;BME280;25451;51.960;6.250;2024-02-26T07:18:44;99942.56;;;4.94;80.33
39773;BME280;25451;51.960;6.250;2024-02-26T07:21:11;100024.41;;;5.43;80.24
39773;BME280;25451;51.960;6.250;2024-02-26T07:23:38;100068.44;;;5.71;80.10
39773;BME280;25451;51.960;6.250;2024-02-26T07:26:03;100024.00;;;5.40;80.07
39773;BME280;25451;51.960;6.250;2024-02-26T07:28:28;100069.97;;;5.67;80.24
39773;BME280;25451;51.960;6.250;2024-02-26T07:30:54;100083.78;;;5.72;80.34
39773;BME280;25451;51.960;6.250;2024-02-26T07:33:19;100081.53;;;5.69;80.28
39773;BME280;25451;51.960;6.250;2024-02-26T07:35:45;100071.75;;;5.62;80.27
39773;BME280;25451;51.960;6.250;2024-02-26T07:38:10;100096.66;;;5.72;80.36
39773;BME280;25451;51.960;6.250;2024-02-26T07:40:36;100052.13;;;5.47;80.47
39773;BME280;25451;51.960;6.250;2024-02-26T07:43:01;100054.78;;;5.53;80.49
39773;BME280;25451;51.960;6.250;2024-02-26T07:45:26;100072.56;;;5.62;80.35
39773;BME280;25451;51.960;6.250;2024-02-26T07:47:52;100069.81;;;5.62;80.29
39773;BME280;25451;51.960;6.250;2024-02-26T07:50:18;100086.53;;;5.72;80.43
39773;BME280;25451;51.960;6.250;2024-02-26T07:52:44;100086.16;;;5.69;80.47
39773;BME280;25451;51.960;6.250;2024-02-26T07:55:10;100085.78;;;5.65;80.74
39773;BME280;25451;51.960;6.250;2024-02-26T07:57:36;100079.34;;;5.60;80.65
39773;BME280;25451;51.960;6.250;2024-02-26T08:00:03;100107.13;;;5.75;80.41
39773;BME280;25451;51.960;6.250;2024-02-26T08:02:28;100093.31;;;5.70;80.56
39773;BME280;25451;51.960;6.250;2024-02-26T08:04:53;100069.28;;;5.54;80.62
39773;BME280;25451;51.960;6.250;2024-02-26T08:07:19;100098.56;;;5.71;80.49
39773;BME280;25451;51.960;6.250;2024-02-26T08:09:45;100104.16;;;5.76;80.77
39773;BME280;25451;51.960;6.250;2024-02-26T08:12:11;100113.81;;;5.79;80.42
39773;BME280;25451;51.960;6.250;2024-02-26T08:14:36;100106.28;;;5.74;80.71
39773;BME280;25451;51.960;6.250;2024-02-26T08:17:02;100110.97;;;5.74;81.00
39773;BME280;25451;51.960;6.250;2024-02-26T08:19:27;100114.91;;;5.78;80.39
39773;BME280;25451;51.960;6.250;2024-02-26T08:21:52;100106.53;;;5.73;80.83
39773;BME280;25451;51.960;6.250;2024-02-26T08:24:17;100092.09;;;5.66;80.79
39773;BME280;25451;51.960;6.250;2024-02-26T08:26:43;100114.63;;;5.68;80.78
39773;BME280;25451;51.960;6.250;2024-02-26T08:29:08;100108.66;;;5.71;80.90
39773;BME280;25451;51.960;6.250;2024-02-26T08:31:33;100134.06;;;5.78;80.94
39773;BME280;25451;51.960;6.250;2024-02-26T08:34:02;100130.47;;;5.77;81.11
39773;BME280;25451;51.960;6.250;2024-02-26T08:36:28;100120.38;;;5.78;81.08
39773;BME280;25451;51.960;6.250;2024-02-26T08:38:53;100108.63;;;5.59;80.81
39773;BME280;25451;51.960;6.250;2024-02-26T08:41:19;100115.59;;;5.73;81.00
39773;BME280;25451;51.960;6.250;2024-02-26T08:43:44;100127.38;;;5.74;81.27
39773;BME280;25451;51.960;6.250;2024-02-26T08:46:09;100151.03;;;5.86;80.99
39773;BME280;25451;51.960;6.250;2024-02-26T08:48:35;100149.13;;;5.87;81.37
39773;BME280;25451;51.960;6.250;2024-02-26T08:51:05;100150.81;;;5.88;81.58
39773;BME280;25451;51.960;6.250;2024-02-26T08:53:30;100149.50;;;5.91;81.10
39773;BME280;25451;51.960;6.250;2024-02-26T08:55:55;100127.97;;;5.76;81.33
39773;BME280;25451;51.960;6.250;2024-02-26T08:58:20;100141.69;;;5.76;81.23
39773;BME280;25451;51.960;6.250;2024-02-26T09:00:46;100164.28;;;5.90;81.10
39773;BME280;25451;51.960;6.250;2024-02-26T09:03:11;100137.13;;;5.70;81.02
39773;BME280;25451;51.960;6.250;2024-02-26T09:05:37;100153.84;;;5.80;81.50
39773;BME280;25451;51.960;6.250;2024-02-26T09:08:02;100149.78;;;5.82;81.21
39773;BME280;25451;51.960;6.250;2024-02-26T09:10:28;100167.38;;;5.93;81.32
39773;BME280;25451;51.960;6.250;2024-02-26T09:12:53;100148.06;;;5.88;80.91
39773;BME280;25451;51.960;6.250;2024-02-26T09:15:23;100156.75;;;5.85;81.32
39773;BME280;25451;51.960;6.250;2024-02-26T09:17:48;100172.16;;;5.98;81.62
39773;BME280;25451;51.960;6.250;2024-02-26T09:20:15;100156.75;;;5.85;81.36
39773;BME280;25451;51.960;6.250;2024-02-26T09:22:45;100164.72;;;5.86;81.87
39773;BME280;25451;51.960;6.250;2024-02-26T09:25:10;100195.53;;;6.00;81.56
39773;BME280;25451;51.960;6.250;2024-02-26T09:27:35;100183.56;;;5.95;81.08
39773;BME280;25451;51.960;6.250;2024-02-26T09:30:01;100192.19;;;5.98;81.29
39773;BME280;25451;51.960;6.250;2024-02-26T09:32:26;100197.88;;;5.97;81.57
39773;BME280;25451;51.960;6.250;2024-02-26T09:34:51;100199.94;;;6.01;81.23
39773;BME280;25451;51.960;6.250;2024-02-26T09:37:16;100198.72;;;5.97;81.52
39773;BME280;25451;51.960;6.250;2024-02-26T09:39:42;100191.94;;;6.00;81.29
39773;BME280;25451;51.960;6.250;2024-02-26T09:42:09;100207.69;;;6.04;81.77
39773;BME280;25451;51.960;6.250;2024-02-26T09:44:35;100208.31;;;6.06;81.88
39773;BME280;25451;51.960;6.250;2024-02-26T09:47:04;100225.94;;;6.10;81.79
39773;BME280;25451;51.960;6.250;2024-02-26T09:49:30;100238.13;;;6.14;81.55
39773;BME280;25451;51.960;6.250;2024-02-26T09:51:57;100236.91;;;6.10;81.66
39773;BME280;25451;51.960;6.250;2024-02-26T09:54:25;100208.97;;;6.02;81.97
39773;BME280;25451;51.960;6.250;2024-02-26T09:56:52;100238.13;;;6.14;81.61
39773;BME280;25451;51.960;6.250;2024-02-26T09:59:18;100228.44;;;6.12;81.85
39773;BME280;25451;51.960;6.250;2024-02-26T10:01:44;100233.25;;;6.16;82.01
39773;BME280;25451;51.960;6.250;2024-02-26T10:04:12;100237.44;;;6.19;82.10
39773;BME280;25451;51.960;6.250;2024-02-26T10:06:37;100224.88;;;6.11;81.28
39773;BME280;25451;51.960;6.250;2024-02-26T10:09:03;100245.19;;;6.22;81.71
39773;BME280;25451;51.960;6.250;2024-02-26T10:11:32;100244.81;;;6.18;81.31
39773;BME280;25451;51.960;6.250;2024-02-26T10:13:57;100247.69;;;6.23;81.82
39773;BME280;25451;51.960;6.250;2024-02-26T10:16:24;100245.66;;;6.19;82.10
39773;BME280;25451;51.960;6.250;2024-02-26T10:18:51;100261.19;;;6.25;82.27
39773;BME280;25451;51.960;6.250;2024-02-26T10:21:20;100256.13;;;6.22;82.05
39773;BME280;25451;51.960;6.250;2024-02-26T10:23:46;100249.53;;;6.11;81.74
39773;BME280;25451;51.960;6.250;2024-02-26T10:26:15;100260.69;;;6.28;82.26
39773;BME280;25451;51.960;6.250;2024-02-26T10:28:42;100274.63;;;6.26;81.91
39773;BME280;25451;51.960;6.250;2024-02-26T10:31:08;100286.88;;;6.24;82.17
39773;BME280;25451;51.960;6.250;2024-02-26T10:33:35;100288.09;;;6.28;81.93
39773;BME280;25451;51.960;6.250;2024-02-26T10:36:02;100273.41;;;6.22;82.20
39773;BME280;25451;51.960;6.250;2024-02-26T10:38:27;100284.38;;;6.22;82.02
39773;BME280;25451;51.960;6.250;2024-02-26T10:40:53;100281.41;;;6.24;82.05
39773;BME280;25451;51.960;6.250;2024-02-26T10:43:19;100264.44;;;6.15;82.14
39773;BME280;25451;51.960;6.250;2024-02-26T10:45:45;100290.91;;;6.21;82.25
39773;BME280;25451;51.960;6.250;2024-02-26T10:48:13;100318.78;;;6.36;81.89
39773;BME280;25451;51.960;6.250;2024-02-26T10:50:38;100316.72;;;6.32;82.00
39773;BME280;25451;51.960;6.250;2024-02-26T10:53:21;100310.88;;;6.28;81.99
39773;BME280;25451;51.960;6.250;2024-02-26T10:55:52;100318.72;;;6.25;81.95
39773;BME280;25451;51.960;6.250;2024-02-26T10:58:20;100347.84;;;6.37;82.04
39773;BME280;25451;51.960;6.250;2024-02-26T11:00:47;100309.28;;;6.21;81.99
39773;BME280;25451;51.960;6.250;2024-02-26T11:03:15;100308.44;;;6.20;82.58
39773;BME280;25451;51.960;6.250;2024-02-26T11:05:43;100302.34;;;6.18;82.46
39773;BME280;25451;51.960;6.250;2024-02-26T11:08:10;100326.22;;;6.29;82.43
39773;BME280;25451;51.960;6.250;2024-02-26T11:10:36;100332.19;;;6.26;82.09
39773;BME280;25451;51.960;6.250;2024-02-26T11:13:05;100327.75;;;6.25;82.33
39773;BME280;25451;51.960;6.250;2024-02-26T11:15:32;100349.22;;;6.28;82.44
39773;BME280;25451;51.960;6.250;2024-02-26T11:17:59;100316.66;;;6.20;82.08
39773;BME280;25451;51.960;6.250;2024-02-26T11:20:28;100332.78;;;6.28;82.44
39773;BME280;25451;51.960;6.250;2024-02-26T11:22:53;100352.72;;;6.35;82.59
39773;BME280;25451;51.960;6.250;2024-02-26T11:25:19;100354.25;;;6.31;82.32
39773;BME280;25451;51.960;6.250;2024-02-26T11:27:49;100376.78;;;6.33;81.95
39773;BME280;25451;51.960;6.250;2024-02-26T11:30:16;100364.75;;;6.34;82.61
39773;BME280;25451;51.960;6.250;2024-02-26T11:32:47;100357.69;;;6.27;82.69
39773;BME280;25451;51.960;6.250;2024-02-26T11:35:13;100356.25;;;6.24;82.65
39773;BME280;25451;51.960;6.250;2024-02-26T11:37:41;100367.19;;;6.24;82.64
39773;BME280;25451;51.960;6.250;2024-02-26T11:40:11;100385.84;;;6.34;82.33
39773;BME280;25451;51.960;6.250;2024-02-26T11:42:43;100389.19;;;6.36;82.71
39773;BME280;25451;51.960;6.250;2024-02-26T11:48:03;100374.75;;;6.29;82.85
39773;BME280;25451;51.960;6.250;2024-02-26T11:50:36;100382.06;;;6.35;82.44
39773;BME280;25451;51.960;6.250;2024-02-26T11:53:32;100374.63;;;6.35;82.42
39773;BME280;25451;51.960;6.250;2024-02-26T11:58:45;100388.34;;;6.35;82.92
39773;BME280;25451;51.960;6.250;2024-02-26T12:01:36;100397.41;;;6.36;82.70
39773;BME280;25451;51.960;6.250;2024-02-26T12:04:02;100385.47;;;6.30;82.44
39773;BME280;25451;51.960;6.250;2024-02-26T12:06:29;100382.72;;;6.30;82.28
39773;BME280;25451;51.960;6.250;2024-02-26T12:08:56;100383.34;;;6.32;82.23
39773;BME280;25451;51.960;6.250;2024-02-26T12:11:21;100374.34;;;6.25;82.44
39773;BME280;25451;51.960;6.250;2024-02-26T12:13:47;100390.47;;;6.33;82.83
39773;BME280;25451;51.960;6.250;2024-02-26T12:16:35;100392.16;;;6.34;82.58
39773;BME280;25451;51.960;6.250;2024-02-26T12:19:03;100402.22;;;6.40;82.56
39773;BME280;25451;51.960;6.250;2024-02-26T12:21:28;100381.03;;;6.29;82.58
39773;BME280;25451;51.960;6.250;2024-02-26T12:23:54;100379.13;;;6.30;82.84
39773;BME280;25451;51.960;6.250;2024-02-26T12:26:19;100389.66;;;6.33;82.53
39773;BME280;25451;51.960;6.250;2024-02-26T12:28:46;100406.41;;;6.43;82.99
39773;BME280;25451;51.960;6.250;2024-02-26T12:31:12;100394.44;;;6.37;83.34
39773;BME280;25451;51.960;6.250;2024-02-26T12:33:37;100407.69;;;6.40;82.92
39773;BME280;25451;51.960;6.250;2024-02-26T12:36:03;100406.47;;;6.36;82.74
39773;BME280;25451;51.960;6.250;2024-02-26T12:38:29;100389.25;;;6.29;82.96
39773;BME280;25451;51.960;6.250;2024-02-26T12:40:55;100406.00;;;6.39;82.73
39773;BME280;25451;51.960;6.250;2024-02-26T12:43:20;100409.00;;;6.38;82.75
39773;BME280;25451;51.960;6.250;2024-02-26T12:45:46;100430.16;;;6.49;82.73
39773;BME280;25451;51.960;6.250;2024-02-26T12:48:12;100425.75;;;6.48;83.53
39773;BME280;25451;51.960;6.250;2024-02-26T12:50:38;100409.34;;;6.41;82.95
39773;BME280;25451;51.960;6.250;2024-02-26T12:53:03;100426.81;;;6.47;82.39
39773;BME280;25451;51.960;6.250;2024-02-26T12:55:29;100418.19;;;6.43;82.83
39773;BME280;25451;51.960;6.250;2024-02-26T12:57:57;100426.41;;;6.43;82.83
39773;BME280;25451;51.960;6.250;2024-02-26T13:00:25;100434.75;;;6.55;82.79
39773;BME280;25451;51.960;6.250;2024-02-26T13:02:51;100438.16;;;6.50;83.39
39773;BME280;25451;51.960;6.250;2024-02-26T13:05:19;100433.53;;;6.51;82.87